Time;durP1;ratioP1;P1;durP2;ratioP2;P2;SDS_P1;SDS_P2;PMS_P1;PMS_P2;Temp;Humidity;BMP_temperature;BMP_pressure;BME280_temperature;BME280_humidity;BME280_pressure;Samples;Min_cycle;Max_cycle;Signal;HPM_P1;HPM_P2
2022/10/29 00:02:01;;;;;;;;;70.00;52.67;;;;;12.46;100.00;100829.25;6272310;20;3629546;-69
2022/10/29 00:04:30;;;;;;;;;74.50;52.25;;;;;12.44;100.00;100831.16;6272661;20;4377471;-70
2022/10/29 00:07:00;;;;;;;;;67.75;51.25;;;;;12.55;100.00;100829.72;6300702;20;4381550;-68
2022/10/29 00:09:29;;;;;;;;;72.00;52.50;;;;;12.49;100.00;100820.16;6303596;20;3639956;-69
2022/10/29 00:11:58;;;;;;;;;71.00;51.75;;;;;12.40;100.00;100823.28;6301292;20;3632594;-69
2022/10/29 00:14:28;;;;;;;;;68.75;50.25;;;;;12.45;100.00;100827.53;6299704;20;3629478;-70
2022/10/29 00:16:57;;;;;;;;;71.00;51.50;;;;;12.50;100.00;100835.34;6304066;20;3632631;-69
2022/10/29 00:19:27;;;;;;;;;71.25;51.00;;;;;12.33;100.00;100821.88;6300010;20;4378893;-69
2022/10/29 00:21:55;;;;;;;;;69.00;51.67;;;;;12.45;100.00;100826.63;6301516;20;3612834;-69
2022/10/29 00:24:25;;;;;;;;;68.50;48.50;;;;;12.46;100.00;100840.03;6271957;20;3632554;-69
2022/10/29 00:26:54;;;;;;;;;59.00;44.33;;;;;12.42;100.00;100842.94;6298752;20;3632524;-70
2022/10/29 00:29:23;;;;;;;;;65.33;48.33;;;;;12.46;100.00;100837.34;6301225;20;3630497;-69
2022/10/29 00:31:52;;;;;;;;;65.25;49.00;;;;;12.47;100.00;100849.84;6270932;20;3626421;-70
2022/10/29 00:34:22;;;;;;;;;65.50;50.00;;;;;12.51;100.00;100837.09;6304763;20;4385701;-70
2022/10/29 00:36:51;;;;;;;;;67.00;50.67;;;;;12.51;100.00;100831.72;6301314;20;3636803;-69
2022/10/29 00:39:20;;;;;;;;;68.75;50.00;;;;;12.49;100.00;100829.09;6267848;20;4383794;-69
2022/10/29 00:41:51;;;;;;;;;68.75;49.50;;;;;12.49;100.00;100837.16;6304397;20;4404434;-69
2022/10/29 00:44:37;;;;;;;;;63.33;48.00;;;;;12.49;100.00;100837.16;6299182;20;3645091;-69
2022/10/29 00:47:34;;;;;;;;;68.50;50.75;;;;;12.43;100.00;100833.94;6301418;20;3632673;-69
2022/10/29 00:50:09;;;;;;;;;67.33;52.00;;;;;12.38;100.00;100844.06;6299492;20;3623400;-70
2022/10/29 00:52:44;;;;;;;;;66.00;51.00;;;;;12.36;100.00;100827.97;6270426;20;3625297;-70
2022/10/29 00:55:15;;;;;;;;;69.33;51.00;;;;;12.49;100.00;100833.63;6302911;20;3618424;-70
2022/10/29 00:57:51;;;;;;;;;64.33;47.33;;;;;12.42;100.00;100834.88;6265249;20;3640851;-70
2022/10/29 01:00:22;;;;;;;;;71.33;49.00;;;;;12.37;100.00;100835.09;6265514;20;3654542;-69
2022/10/29 01:02:51;;;;;;;;;71.00;53.00;;;;;12.30;100.00;100833.69;6264029;20;3641956;-70
2022/10/29 01:05:24;;;;;;;;;70.33;52.00;;;;;12.49;100.00;100839.88;6267656;20;3641034;-69
2022/10/29 01:07:54;;;;;;;;;68.00;50.00;;;;;12.55;100.00;100837.81;6267857;20;3651411;-69
2022/10/29 01:11:32;;;;;;;;;71.00;51.33;;;;;12.36;100.00;100836.06;6265614;20;3644003;-71
2022/10/29 01:14:44;;;;;;;;;69.00;51.00;;;;;12.44;100.00;100827.59;6269010;20;3644051;-72
2022/10/29 01:18:02;;;;;;;;;68.00;50.33;;;;;12.35;100.00;100823.56;6267728;20;3629537;-72
2022/10/29 01:21:15;;;;;;;;;72.33;52.00;;;;;12.35;100.00;100820.84;6265389;20;3624222;-70
2022/10/29 01:24:36;;;;;;;;;70.50;53.75;;;;;12.34;100.00;100810.16;6304516;20;3634688;-71
2022/10/29 01:27:48;;;;;;;;;69.75;53.00;;;;;12.56;100.00;100807.22;6303177;20;3634666;-71
2022/10/29 01:31:11;;;;;;;;;67.50;50.00;;;;;12.41;100.00;100804.38;6303619;20;4381462;-71
2022/10/29 01:34:09;;;;;;;;;66.50;50.75;;;;;12.30;100.00;100787.91;6302833;20;3640989;-71
2022/10/29 01:37:00;;;;;;;;;71.00;52.67;;;;;12.28;100.00;100789.78;6303291;20;3633713;-72
2022/10/29 01:39:56;;;;;;;;;68.00;51.00;;;;;12.36;100.00;100792.97;6270338;20;3631543;-71
2022/10/29 01:42:37;;;;;;;;;71.25;51.50;;;;;12.27;100.00;100790.75;6301566;20;3631612;-71
2022/10/29 01:45:43;;;;;;;;;66.25;50.50;;;;;12.34;100.00;100786.78;6298048;20;4381522;-71
2022/10/29 01:48:21;;;;;;;;;73.25;52.25;;;;;12.29;100.00;100787.00;6296706;20;3632782;-72
2022/10/29 01:50:57;;;;;;;;;63.00;48.00;;;;;12.38;100.00;100785.69;6302232;20;4384656;-72
2022/10/29 01:53:29;;;;;;;;;66.25;51.50;;;;;12.37;100.00;100785.75;6301768;20;4388792;-72
2022/10/29 01:55:59;;;;;;;;;67.50;49.75;;;;;12.32;100.00;100788.66;6298316;20;4404392;-71
2022/10/29 01:58:28;;;;;;;;;67.33;48.33;;;;;12.42;100.00;100773.78;6296586;20;3632657;-72
2022/10/29 02:01:22;;;;;;;;;60.00;47.00;;;;;12.59;100.00;100772.06;6263244;20;3628391;-72
2022/10/29 02:04:44;;;;;;;;;66.00;49.75;;;;;12.31;100.00;100773.47;6302019;20;4401413;-72
2022/10/29 02:07:47;;;;;;;;;68.50;51.75;;;;;12.44;100.00;100771.88;6304079;20;3628522;-71
2022/10/29 02:11:08;;;;;;;;;68.67;51.00;;;;;12.34;100.00;100762.53;6306047;20;3631585;-72
2022/10/29 02:14:08;;;;;;;;;65.00;50.00;;;;;12.36;100.00;100757.94;6269797;20;3645076;-71
2022/10/29 02:16:38;;;;;;;;;69.00;50.00;;;;;12.38;100.00;100761.44;6269812;20;3637786;-72
2022/10/29 02:19:07;;;;;;;;;67.67;49.67;;;;;12.34;100.00;100759.84;6270659;20;3643012;-71
2022/10/29 02:21:39;;;;;;;;;69.33;51.00;;;;;12.44;100.00;100762.94;6270235;20;3652507;-72
2022/10/29 02:24:08;;;;;;;;;67.33;50.33;;;;;12.54;100.00;100761.50;6268064;20;3636835;-72
2022/10/29 02:26:38;;;;;;;;;69.75;51.00;;;;;12.43;100.00;100751.31;6305550;20;4402425;-71
2022/10/29 02:29:07;;;;;;;;;70.75;51.00;;;;;12.38;100.00;100753.38;6309095;20;3643101;-72
2022/10/29 02:31:37;;;;;;;;;70.25;51.00;;;;;12.42;100.00;100752.22;6303775;20;3630602;-72
2022/10/29 02:34:06;;;;;;;;;73.00;51.00;;;;;12.36;100.00;100741.78;6305524;20;3626406;-71
2022/10/29 02:36:36;;;;;;;;;70.25;52.00;;;;;12.30;100.00;100750.19;6302553;20;3631685;-72
2022/10/29 02:39:05;;;;;;;;;70.75;50.00;;;;;12.43;100.00;100743.22;6306054;20;4404410;-73
2022/10/29 02:41:35;;;;;;;;;71.25;51.00;;;;;12.42;100.00;100741.47;6307451;20;4402425;-72
2022/10/29 02:44:04;;;;;;;;;68.00;49.67;;;;;12.34;100.00;100741.00;6303974;20;3634756;-72
2022/10/29 02:46:38;;;;;;;;;67.50;47.00;;;;;12.40;100.00;100747.88;6276591;20;4403557;-72
2022/10/29 02:49:08;;;;;;;;;69.50;48.75;;;;;12.22;100.00;100729.06;6307319;20;4394103;-71
2022/10/29 02:51:37;;;;;;;;;70.25;47.75;;;;;12.29;100.00;100749.31;6302758;20;4398258;-72
2022/10/29 02:54:07;;;;;;;;;61.25;44.50;;;;;12.25;100.00;100738.78;6306467;20;4403538;-71
2022/10/29 02:56:36;;;;;;;;;66.75;49.50;;;;;12.34;100.00;100743.69;6301939;20;4384689;-72
2022/10/29 02:59:06;;;;;;;;;61.33;48.33;;;;;12.23;100.00;100741.56;6308094;20;3614999;-72
2022/10/29 03:01:40;;;;;;;;;70.67;49.67;;;;;12.31;100.00;100754.63;6273183;20;3631537;-72
2022/10/29 03:04:11;;;;;;;;;64.00;47.67;;;;;12.32;100.00;100755.47;6268509;20;3628348;-72
2022/10/29 03:06:40;;;;;;;;;64.25;47.25;;;;;12.25;100.00;100754.94;6309063;20;3631642;-72
2022/10/29 03:09:10;;;;;;;;;69.50;50.25;;;;;12.26;100.00;100754.00;6304793;20;4405529;-72
2022/10/29 03:11:39;;;;;;;;;68.75;50.00;;;;;12.33;100.00;100752.72;6302712;20;4393957;-72
2022/10/29 03:14:09;;;;;;;;;68.25;50.75;;;;;12.19;100.00;100755.25;6306499;20;3624265;-71
2022/10/29 03:16:38;;;;;;;;;68.25;51.75;;;;;12.20;100.00;100762.38;6305671;20;3625352;-72
2022/10/29 03:19:08;;;;;;;;;70.75;52.00;;;;;12.17;100.00;100759.84;6305371;20;4395093;-72
2022/10/29 03:21:37;;;;;;;;;66.50;50.50;;;;;12.22;100.00;100765.88;6304608;20;4386205;-72
2022/10/29 03:24:06;;;;;;;;;70.33;55.00;;;;;12.27;100.00;100755.75;6307789;20;3616945;-71
2022/10/29 03:26:35;;;;;;;;;70.00;54.00;;;;;12.29;100.00;100749.31;6278576;20;3628361;-73
2022/10/29 03:29:04;;;;;;;;;68.25;52.50;;;;;12.31;100.00;100751.94;6275944;20;4397123;-72
2022/10/29 03:31:33;;;;;;;;;64.00;50.33;;;;;12.30;100.00;100747.50;6306354;20;3613849;-72
2022/10/29 03:34:01;;;;;;;;;66.00;49.50;;;;;12.32;100.00;100744.72;6272938;20;3585782;-72
2022/10/29 03:36:31;;;;;;;;;69.00;51.00;;;;;12.25;100.00;100742.34;6271250;20;3623229;-72
2022/10/29 03:39:00;;;;;;;;;63.00;47.50;;;;;12.26;100.00;100745.91;6306660;20;3640866;-71
2022/10/29 03:41:30;;;;;;;;;68.50;50.50;;;;;12.34;100.00;100749.06;6304060;20;3636813;-71
2022/10/29 03:43:59;;;;;;;;;67.50;50.50;;;;;12.24;100.00;100737.03;6303222;20;3622328;-71
2022/10/29 03:46:28;;;;;;;;;67.33;51.00;;;;;12.32;100.00;100750.97;6306556;20;3628474;-71
2022/10/29 03:48:58;;;;;;;;;70.50;52.25;;;;;12.32;100.00;100745.59;6274218;20;3620043;-72
2022/10/29 03:51:27;;;;;;;;;64.25;49.50;;;;;12.47;100.00;100757.38;6302535;20;3639971;-72
2022/10/29 03:53:56;;;;;;;;;64.67;50.00;;;;;12.47;100.00;100747.47;6300184;20;3622153;-72
2022/10/29 03:56:25;;;;;;;;;67.50;50.25;;;;;12.38;100.00;100747.13;6274457;20;4392972;-72
2022/10/29 03:58:55;;;;;;;;;67.00;49.25;;;;;12.38;100.00;100749.81;6300939;20;3642987;-72
2022/10/29 04:01:24;;;;;;;;;68.00;49.33;;;;;12.35;100.00;100742.75;6299289;20;3634666;-71
2022/10/29 04:03:54;;;;;;;;;67.75;50.25;;;;;12.32;100.00;100736.63;6304557;20;3629494;-71
2022/10/29 04:06:23;;;;;;;;;69.00;49.50;;;;;12.25;100.00;100752.25;6306376;20;3633838;-72
2022/10/29 04:08:54;;;;;;;;;68.00;51.75;;;;;12.31;100.00;100743.84;6300810;20;3623371;-71
2022/10/29 04:11:23;;;;;;;;;71.33;52.00;;;;;12.34;100.00;100749.06;6304848;20;3633837;-71
2022/10/29 04:13:53;;;;;;;;;70.67;51.33;;;;;12.22;100.00;100731.75;6295032;20;3650313;-72
2022/10/29 04:16:23;;;;;;;;;67.67;50.00;;;;;12.21;100.00;100739.88;6271153;20;3653450;-73
2022/10/29 04:18:52;;;;;;;;;69.00;51.33;;;;;12.22;100.00;100747.03;6270338;20;3630521;-72
2022/10/29 04:21:22;;;;;;;;;74.25;52.25;;;;;12.27;100.00;100736.91;6273160;20;4391929;-72
2022/10/29 04:24:11;;;;;;;;;68.33;49.00;;;;;12.19;100.00;100744.47;6301046;20;3651360;-72
2022/10/29 04:27:01;;;;;;;;;72.00;53.00;;;;;12.19;100.00;100728.31;6264484;20;3633643;-72
2022/10/29 04:29:50;;;;;;;;;71.25;52.00;;;;;12.06;100.00;100728.09;6304215;20;3637737;-71
2022/10/29 04:32:20;;;;;;;;;75.25;53.00;;;;;12.14;100.00;100731.28;6299351;20;4408557;-71
2022/10/29 04:34:49;;;;;;;;;70.00;52.00;;;;;12.14;100.00;100735.75;6305269;20;4407516;-71
2022/10/29 04:37:19;;;;;;;;;68.75;50.75;;;;;12.17;100.00;100741.88;6302787;20;3633783;-72
2022/10/29 04:39:48;;;;;;;;;72.00;53.25;;;;;12.14;100.00;100733.06;6305251;20;3634742;-72
2022/10/29 04:42:18;;;;;;;;;73.75;51.00;;;;;12.26;100.00;100733.31;6303382;20;4394023;-71
2022/10/29 04:44:46;;;;;;;;;69.67;53.00;;;;;12.23;100.00;100729.91;6299144;20;3627360;-72
2022/10/29 04:47:16;;;;;;;;;63.00;45.50;;;;;12.19;100.00;100733.69;6272457;20;4404386;-72
2022/10/29 04:49:45;;;;;;;;;68.50;50.75;;;;;12.11;100.00;100741.31;6303762;20;3632601;-72
2022/10/29 04:52:15;;;;;;;;;71.50;50.50;;;;;12.17;100.00;100735.63;6300430;20;4404421;-71
2022/10/29 04:54:44;;;;;;;;;74.25;52.50;;;;;12.27;100.00;100734.22;6302916;20;4395019;-72
2022/10/29 04:57:13;;;;;;;;;71.67;52.67;;;;;12.26;100.00;100732.44;6301266;20;3635233;-72
2022/10/29 04:59:43;;;;;;;;;73.00;52.67;;;;;12.27;100.00;100726.13;6268876;20;3648234;-72
2022/10/29 05:02:12;;;;;;;;;77.00;53.33;;;;;12.29;100.00;100735.84;6263494;20;3657560;-72
2022/10/29 05:04:42;;;;;;;;;71.50;51.00;;;;;12.19;100.00;100733.69;6269893;20;4404461;-71
2022/10/29 05:07:11;;;;;;;;;76.50;54.75;;;;;12.19;100.00;100748.06;6305606;20;4421118;-72
2022/10/29 05:09:39;;;;;;;;;75.00;52.50;;;;;12.16;100.00;100740.13;6300142;20;1923362;-72
2022/10/29 05:12:08;;;;;;;;;70.00;53.33;;;;;12.09;100.00;100738.72;6271682;20;3620547;-71
2022/10/29 05:14:37;;;;;;;;;71.00;54.00;;;;;12.13;100.00;100744.78;6275276;20;3634630;-71
2022/10/29 05:17:07;;;;;;;;;75.00;52.00;;;;;12.05;100.00;100727.19;6303238;20;4401247;-72
2022/10/29 05:19:35;;;;;;;;;70.00;51.67;;;;;12.14;100.00;100730.38;6307659;20;3632567;-72
2022/10/29 05:22:05;;;;;;;;;70.75;51.00;;;;;11.99;100.00;100743.69;6272080;20;3629737;-71
2022/10/29 05:24:34;;;;;;;;;68.00;52.00;;;;;12.12;100.00;100749.31;6304432;20;3608598;-72
2022/10/29 05:27:06;;;;;;;;;71.67;52.67;;;;;12.04;100.00;100746.16;6268245;20;3626335;-71
2022/10/29 05:29:35;;;;;;;;;68.75;49.25;;;;;11.99;100.00;100745.50;6298594;20;3654529;-72
2022/10/29 05:32:05;;;;;;;;;73.00;52.25;;;;;12.06;100.00;100752.31;6302000;20;3639917;-72
2022/10/29 05:34:34;;;;;;;;;69.50;52.00;;;;;11.97;100.00;100752.78;6298913;20;3617126;-73
2022/10/29 05:37:07;;;;;;;;;68.00;52.00;;;;;12.13;100.00;100751.03;6303875;20;3615907;-72
2022/10/29 05:39:37;;;;;;;;;70.25;51.75;;;;;12.14;100.00;100754.59;6303108;20;3621230;-71
2022/10/29 05:42:06;;;;;;;;;68.25;51.00;;;;;12.04;100.00;100747.00;6307057;20;3628426;-72
2022/10/29 05:44:35;;;;;;;;;69.00;50.50;;;;;12.04;100.00;100751.53;6305126;20;4392978;-71
2022/10/29 05:47:06;;;;;;;;;68.50;50.25;;;;;12.06;100.00;100760.41;6304508;20;3620041;-72
2022/10/29 05:49:36;;;;;;;;;70.00;50.67;;;;;12.07;100.00;100757.63;6303238;20;4334622;-72
2022/10/29 05:52:05;;;;;;;;;62.75;46.50;;;;;11.99;100.00;100759.81;6304604;20;4399235;-72
2022/10/29 05:54:35;;;;;;;;;69.50;50.50;;;;;12.02;100.00;100738.13;6301249;20;3643132;-72
2022/10/29 05:57:04;;;;;;;;;64.00;49.00;;;;;11.81;100.00;100739.19;6301529;20;3631631;-73
2022/10/29 05:59:34;;;;;;;;;64.00;45.33;;;;;12.01;100.00;100744.47;6301873;20;3651353;-72
2022/10/29 06:02:03;;;;;;;;;66.33;50.67;;;;;11.91;100.00;100751.28;6269620;20;3629452;-72
2022/10/29 06:04:34;;;;;;;;;66.00;48.00;;;;;12.07;100.00;100757.63;6266816;20;3637812;-71
2022/10/29 06:07:04;;;;;;;;;66.33;49.33;;;;;12.08;100.00;100755.78;6266728;20;3646249;-72
2022/10/29 06:09:33;;;;;;;;;73.00;51.00;;;;;12.03;100.00;100760.53;6269191;20;3645185;-71
2022/10/29 06:12:03;;;;;;;;;64.00;49.33;;;;;12.08;100.00;100754.00;6268520;20;3640956;-72
2022/10/29 06:14:33;;;;;;;;;68.25;49.75;;;;;12.12;100.00;100756.53;6302793;20;3634756;-72
2022/10/29 06:17:02;;;;;;;;;66.75;51.25;;;;;12.02;100.00;100754.28;6305418;20;3619035;-72
2022/10/29 06:19:32;;;;;;;;;60.75;45.50;;;;;11.95;100.00;100747.47;6304881;20;3635792;-71
2022/10/29 06:22:01;;;;;;;;;67.33;47.00;;;;;11.88;100.00;100747.88;6301968;20;3632559;-71
2022/10/29 06:24:31;;;;;;;;;70.00;48.00;;;;;11.89;100.00;100742.41;6269017;20;3640895;-71
2022/10/29 06:27:00;;;;;;;;;65.00;47.67;;;;;11.90;100.00;100738.78;6269009;20;3642987;-71
2022/10/29 06:29:41;;;;;;;;;61.33;46.00;;;;;11.76;100.00;100746.63;6268472;20;3619139;-71
2022/10/29 06:32:10;;;;;;;;;64.33;47.00;;;;;11.83;100.00;100757.00;6302535;20;3647283;-73
2022/10/29 06:34:39;;;;;;;;;57.00;41.33;;;;;11.86;100.00;100750.63;6264442;20;3615853;-72
2022/10/29 06:37:09;;;;;;;;;61.50;42.75;;;;;11.94;100.00;100761.88;6298189;20;3640996;-71
2022/10/29 06:39:39;;;;;;;;;62.00;46.25;;;;;12.05;100.00;100761.34;6302003;20;4390957;-73
2022/10/29 06:42:08;;;;;;;;;61.33;45.67;;;;;11.97;100.00;100761.72;6302019;20;3639846;-70
2022/10/29 06:44:38;;;;;;;;;58.67;46.00;;;;;11.98;100.00;100768.88;6296491;20;3636730;-73
2022/10/29 06:47:07;;;;;;;;;65.67;48.00;;;;;12.02;100.00;100765.06;6299289;20;3640872;-72
2022/10/29 06:49:36;;;;;;;;;236.20;220.20;;;;;12.10;100.00;100767.34;6213818;20;5265914;-73
2022/10/29 06:52:05;;;;;;;;;66.67;49.67;;;;;12.00;100.00;100772.31;6265584;20;3633673;-72
2022/10/29 06:54:34;;;;;;;;;77.00;59.75;;;;;12.09;100.00;100779.09;6271950;20;3656658;-73
2022/10/29 06:57:03;;;;;;;;;64.00;48.50;;;;;12.09;100.00;100776.41;6304655;20;3629580;-64
2022/10/29 06:59:33;;;;;;;;;63.33;46.00;;;;;11.86;100.00;100769.47;6300426;20;3645093;-70
2022/10/29 07:02:02;;;;;;;;;61.67;45.00;;;;;11.82;100.00;100765.13;6272029;20;3653437;-70
2022/10/29 07:04:35;;;;;;;;;58.33;45.33;;;;;11.77;100.00;100754.63;6267637;20;3630591;-69
2022/10/29 07:07:05;;;;;;;;;68.75;47.75;;;;;11.83;100.00;100753.44;6302326;20;4412784;-68
2022/10/29 07:09:34;;;;;;;;;63.50;48.00;;;;;11.90;100.00;100759.41;6304394;20;4388950;-70
2022/10/29 07:12:04;;;;;;;;;66.00;48.25;;;;;11.76;100.00;100763.63;6305206;20;4391955;-70
2022/10/29 07:14:34;;;;;;;;;63.00;48.00;;;;;11.91;100.00;100753.97;6303083;20;4380488;-68
2022/10/29 07:17:03;;;;;;;;;57.00;46.00;;;;;11.89;100.00;100752.28;6303708;20;3604461;-70
2022/10/29 07:19:33;;;;;;;;;63.25;45.75;;;;;11.88;100.00;100770.25;6302422;20;3646345;-70
2022/10/29 07:22:02;;;;;;;;;57.67;45.33;;;;;11.73;100.00;100769.16;6303852;20;3633619;-69
2022/10/29 07:24:32;;;;;;;;;59.33;44.33;;;;;11.81;100.00;100783.09;6297832;20;3626304;-69
2022/10/29 07:27:01;;;;;;;;;60.00;45.00;;;;;11.72;100.00;100778.19;6302496;20;3638793;-68
2022/10/29 07:29:32;;;;;;;;;55.33;44.00;;;;;11.73;100.00;100774.53;6267081;20;3616032;-68
2022/10/29 07:32:01;;;;;;;;;53.00;41.00;;;;;11.90;100.00;100781.84;6304588;20;3599440;-68
2022/10/29 07:34:31;;;;;;;;;59.00;45.67;;;;;11.98;100.00;100763.47;6301810;20;3625288;-67
2022/10/29 07:37:00;;;;;;;;;63.00;43.00;;;;;11.81;100.00;100763.41;6303178;20;4407534;-68
2022/10/29 07:39:29;;;;;;;;;54.00;44.00;;;;;11.82;100.00;100762.44;6304155;20;3620023;-70
2022/10/29 07:42:18;;;;;;;;;50.33;40.33;;;;;11.77;100.00;100761.78;6265771;20;3607554;-69
2022/10/29 07:44:51;;;;;;;;;55.67;42.33;;;;;11.68;100.00;100764.94;6302659;20;3627344;-69
2022/10/29 07:47:20;;;;;;;;;46.67;38.67;;;;;11.62;100.00;100772.38;6301085;20;2860180;-70
2022/10/29 07:49:50;;;;;;;;;53.00;39.00;;;;;11.73;100.00;100781.75;6301548;20;3621164;-70
2022/10/29 07:52:19;;;;;;;;;55.00;42.00;;;;;11.91;100.00;100780.00;6306736;20;3636863;-69
2022/10/29 07:54:48;;;;;;;;;47.00;37.67;;;;;11.68;100.00;100789.16;6304849;20;3603378;-68
2022/10/29 07:57:17;;;;;;;;;54.67;40.00;;;;;11.82;100.00;100783.97;6271440;20;3630516;-69
2022/10/29 07:59:46;;;;;;;;;51.00;40.67;;;;;11.80;100.00;100785.88;6303877;20;3610803;-69
2022/10/29 08:02:16;;;;;;;;;52.67;38.67;;;;;11.98;100.00;100793.09;6270174;20;3614910;-68
2022/10/29 08:04:45;;;;;;;;;52.00;42.00;;;;;11.75;100.00;100774.47;6300522;20;3621136;-68
2022/10/29 08:07:15;;;;;;;;;53.67;44.00;;;;;11.86;100.00;100769.47;6303910;20;3629459;-70
2022/10/29 08:09:44;;;;;;;;;58.33;46.33;;;;;12.01;100.00;100768.72;6307758;20;3613845;-69
2022/10/29 08:12:12;;;;;;;;;56.67;44.00;;;;;11.89;100.00;100774.69;6274027;20;3612744;-67
2022/10/29 08:14:42;;;;;;;;;57.00;43.33;;;;;11.94;100.00;100764.56;6269386;20;3623242;-69
2022/10/29 08:17:11;;;;;;;;;52.67;41.33;;;;;12.02;100.00;100765.06;6309772;20;3621127;-69
2022/10/29 08:19:39;;;;;;;;;54.00;42.33;;;;;12.13;100.00;100764.50;6271648;20;3625292;-70
2022/10/29 08:22:09;;;;;;;;;56.50;42.00;;;;;12.15;100.00;100753.66;6275958;20;4400304;-69
2022/10/29 08:24:38;;;;;;;;;55.25;42.50;;;;;12.22;100.00;100752.41;6307231;20;3617962;-68
2022/10/29 08:27:08;;;;;;;;;53.75;40.50;;;;;12.37;100.00;100758.81;6304052;20;3625448;-69
2022/10/29 08:29:37;;;;;;;;;57.00;44.00;;;;;12.61;100.00;100762.03;6302635;20;4387744;-68
2022/10/29 08:32:07;;;;;;;;;64.00;43.50;;;;;12.12;100.00;100759.22;6303361;20;4399221;-69
2022/10/29 08:34:36;;;;;;;;;53.75;42.00;;;;;12.12;100.00;100760.09;6302615;20;3627373;-68
2022/10/29 08:37:07;;;;;;;;;59.25;44.75;;;;;12.38;100.00;100760.56;6303315;20;4395055;-68
2022/10/29 08:39:36;;;;;;;;;59.00;44.75;;;;;12.33;100.00;100752.72;6305007;20;4399241;-71
2022/10/29 08:42:39;;;;;;;;;56.25;45.25;;;;;12.27;100.00;100753.06;6303811;20;3613881;-71
2022/10/29 08:45:33;;;;;;;;;59.33;44.00;;;;;12.17;100.00;100759.84;6302901;20;3649289;-71
2022/10/29 08:48:43;;;;;;;;;58.00;45.00;;;;;12.19;100.00;100771.41;6269818;20;3622204;-71
2022/10/29 08:51:20;;;;;;;;;60.00;46.25;;;;;12.08;100.00;100774.63;6303996;20;3621127;-71
2022/10/29 08:53:54;;;;;;;;;55.75;43.75;;;;;12.22;100.00;100773.97;6305457;20;3635817;-68
2022/10/29 08:56:53;;;;;;;;;59.67;44.67;;;;;12.21;100.00;100767.69;6305288;20;3632644;-69
2022/10/29 08:59:25;;;;;;;;;62.75;46.00;;;;;12.26;100.00;100772.84;6270313;20;4402535;-70
2022/10/29 09:01:54;;;;;;;;;53.00;42.67;;;;;12.36;100.00;100765.16;6304837;20;3597223;-70
2022/10/29 09:04:34;;;;;;;;;58.67;43.67;;;;;12.33;100.00;100763.50;6269682;20;3638800;-69
2022/10/29 09:07:46;;;;;;;;;63.00;48.00;;;;;12.25;100.00;100754.94;6303109;20;3630506;-70
2022/10/29 09:10:49;;;;;;;;;58.67;47.33;;;;;12.54;100.00;100756.13;6269569;20;3620133;-70
2022/10/29 09:13:43;;;;;;;;;65.67;47.33;;;;;12.43;100.00;100769.28;6297685;20;3648265;-70
2022/10/29 09:17:11;;;;;;;;;58.33;46.33;;;;;12.49;100.00;100769.81;6266593;20;3626315;-68
2022/10/29 09:20:14;;;;;;;;;62.25;49.00;;;;;12.35;100.00;100766.09;6307525;20;3622129;-68
2022/10/29 09:23:02;;;;;;;;;61.75;45.75;;;;;12.39;100.00;100773.94;6305823;20;3648278;-71
2022/10/29 09:25:45;;;;;;;;;61.67;46.67;;;;;12.41;100.00;100761.28;6302187;20;3624293;-69
2022/10/29 09:28:32;;;;;;;;;67.75;48.00;;;;;12.47;100.00;100754.69;6302669;20;4394056;-68
2022/10/29 09:31:26;;;;;;;;;64.00;48.00;;;;;12.34;100.00;100759.84;6302893;20;3633718;-68
2022/10/29 09:34:04;;;;;;;;;67.00;50.33;;;;;12.23;100.00;100746.06;6271977;20;3630530;-70
2022/10/29 09:36:33;;;;;;;;;65.00;49.67;;;;;12.38;100.00;100756.06;6270756;20;3600264;-70
2022/10/29 09:39:15;;;;;;;;;62.00;48.00;;;;;12.54;100.00;100760.66;6267939;20;3599210;-70
2022/10/29 09:41:53;;;;;;;;;66.33;49.00;;;;;12.51;100.00;100741.00;6305690;20;3607632;-69
2022/10/29 09:44:55;;;;;;;;;62.33;47.00;;;;;12.57;100.00;100747.00;6272349;20;3639878;-68
2022/10/29 09:48:02;;;;;;;;;70.00;51.67;;;;;12.61;100.00;100751.25;6303676;20;3641042;-71
2022/10/29 09:51:16;;;;;;;;;65.50;49.00;;;;;12.75;100.00;100751.41;6261786;20;3640941;-68
2022/10/29 09:53:46;;;;;;;;;71.00;54.75;;;;;12.87;100.00;100747.19;6304647;20;3637893;-68
2022/10/29 09:56:14;;;;;;;;;68.33;52.00;;;;;12.89;100.00;100748.84;6300937;20;3621194;-70
2022/10/29 09:58:52;;;;;;;;;68.33;53.00;;;;;13.06;100.00;100747.94;6269099;20;3619121;-71
2022/10/29 10:01:21;;;;;;;;;68.25;50.25;;;;;12.86;100.00;100740.94;6271588;20;3637923;-69
2022/10/29 10:04:11;;;;;;;;;70.25;51.00;;;;;12.72;100.00;100743.50;6302026;20;3641980;-70
2022/10/29 10:07:17;;;;;;;;;72.75;51.75;;;;;12.77;100.00;100749.53;6302776;20;4383617;-69
2022/10/29 10:10:00;;;;;;;;;70.33;52.33;;;;;12.84;100.00;100731.19;6302305;20;3624284;-69
2022/10/29 10:12:50;;;;;;;;;70.25;53.25;;;;;13.02;100.00;100730.19;6268715;20;3632647;-67
2022/10/29 10:15:29;;;;;;;;;69.25;52.00;;;;;12.83;100.00;100727.63;6302384;20;3636769;-67
2022/10/29 10:18:15;;;;;;;;;73.25;51.00;;;;;12.96;100.00;100720.59;6300510;20;4408620;-71
2022/10/29 10:21:08;;;;;;;;;64.67;50.67;;;;;13.07;100.00;100724.53;6303383;20;3615893;-69
2022/10/29 10:23:46;;;;;;;;;68.50;52.75;;;;;12.87;100.00;100707.63;6270573;20;3637956;-68
2022/10/29 10:26:43;;;;;;;;;66.33;50.00;;;;;13.08;100.00;100710.09;6304554;20;3622269;-68
2022/10/29 10:29:25;;;;;;;;;69.25;51.75;;;;;13.38;100.00;100715.63;6275858;20;3633799;-69
2022/10/29 10:31:57;;;;;;;;;66.25;50.25;;;;;13.27;100.00;100701.88;6310757;20;3637846;-67
2022/10/29 10:34:38;;;;;;;;;66.75;49.50;;;;;13.35;100.00;100700.50;6306926;20;3629677;-70
2022/10/29 10:37:09;;;;;;;;;63.33;49.67;;;;;13.41;100.00;100709.19;6304955;20;3628530;-70
2022/10/29 10:40:02;;;;;;;;;65.75;48.75;;;;;13.47;100.00;100716.94;6275351;20;3637862;-69
2022/10/29 10:42:41;;;;;;;;;65.25;49.00;;;;;13.01;100.00;100697.94;6310189;20;3625341;-69
2022/10/29 10:45:23;;;;;;;;;69.25;49.25;;;;;13.15;100.00;100698.00;6306575;20;3636881;-68
2022/10/29 10:47:57;;;;;;;;;69.25;52.00;;;;;12.87;100.00;100690.56;6308982;20;4397102;-69
2022/10/29 10:50:36;;;;;;;;;63.67;49.00;;;;;12.69;100.00;100684.38;6307650;20;3610718;-70
2022/10/29 10:53:20;;;;;;;;;66.67;51.00;;;;;12.76;100.00;100690.31;6275727;20;3633665;-69
2022/10/29 10:55:56;;;;;;;;;66.00;47.75;;;;;12.79;100.00;100701.78;6305584;20;4400231;-69
2022/10/29 10:58:43;;;;;;;;;65.33;50.00;;;;;12.85;100.00;100690.69;6304951;20;3623285;-68
2022/10/29 11:01:42;;;;;;;;;69.33;50.00;;;;;12.95;100.00;100700.00;6275993;20;3624290;-68
2022/10/29 11:04:34;;;;;;;;;70.75;52.00;;;;;12.93;100.00;100699.22;6275689;20;3647237;-70
2022/10/29 11:07:08;;;;;;;;;73.25;54.00;;;;;13.01;100.00;100701.50;6306724;20;3626441;-70
2022/10/29 11:09:45;;;;;;;;;73.00;52.00;;;;;13.16;100.00;100699.75;6303372;20;3627405;-70
2022/10/29 11:12:33;;;;;;;;;75.25;57.50;;;;;13.07;100.00;100686.78;6274562;20;3650409;-69
2022/10/29 11:15:28;;;;;;;;;72.75;53.25;;;;;13.08;100.00;100683.13;6306611;20;4396136;-70
2022/10/29 11:18:34;;;;;;;;;64.67;50.33;;;;;12.98;100.00;100660.31;6303435;20;3621222;-69
2022/10/29 11:21:32;;;;;;;;;63.25;48.00;;;;;13.10;100.00;100670.44;6273952;20;3619042;-69
2022/10/29 11:24:42;;;;;;;;;68.75;51.25;;;;;12.86;100.00;100670.84;6305785;20;4384050;-69
2022/10/29 11:27:33;;;;;;;;;68.00;52.00;;;;;12.89;100.00;100681.44;6307354;20;3638855;-69
2022/10/29 11:30:15;;;;;;;;;69.33;50.00;;;;;13.02;100.00;100676.25;6303485;20;3632574;-68